Time;durP1;ratioP1;P1;durP2;ratioP2;P2;SDS_P1;SDS_P2;PMS_P1;PMS_P2;Temp;Humidity;BMP_temperature;BMP_pressure;BME280_temperature;BME280_humidity;BME280_pressure;Samples;Min_cycle;Max_cycle;Signal;HPM_P1;HPM_P2
2022/05/12 00:01:54;;;;;;;2.97;1.73;;;;;;;22.68;45.34;99858.81;4990425;28;20062;-65
2022/05/12 00:04:20;;;;;;;4.70;1.63;;;;;;;22.65;45.37;99865.34;4990289;28;20085;-65
2022/05/12 00:06:46;;;;;;;5.53;2.08;;;;;;;22.62;45.80;99868.31;4992240;28;20026;-65
2022/05/12 00:09:11;;;;;;;3.15;1.90;;;;;;;22.58;46.55;99866.00;4992029;28;20157;-65
2022/05/12 00:11:37;;;;;;;5.25;2.03;;;;;;;22.55;47.08;99874.41;4992301;28;20026;-65
2022/05/12 00:14:02;;;;;;;5.07;2.00;;;;;;;22.48;46.39;99870.44;4992231;28;20022;-65
2022/05/12 00:16:27;;;;;;;3.22;1.90;;;;;;;22.47;47.16;99869.56;4992004;28;20750;-65
2022/05/12 00:18:53;;;;;;;4.85;2.55;;;;;;;22.43;46.77;99873.53;4991298;28;20410;-65
2022/05/12 00:21:18;;;;;;;3.42;2.03;;;;;;;22.40;46.83;99881.94;4990770;28;20045;-65
2022/05/12 00:23:56;;;;;;;7.95;2.45;;;;;;;22.39;46.63;99888.31;4989990;28;20026;-65
2022/05/12 00:26:25;;;;;;;3.13;1.92;;;;;;;22.36;47.66;99887.72;4989914;28;20030;-65
2022/05/12 00:28:51;;;;;;;5.05;2.30;;;;;;;22.33;47.62;99896.09;4989537;28;20083;-65
2022/05/12 00:31:16;;;;;;;3.05;2.13;;;;;;;22.32;47.47;99900.69;5004490;28;20018;-65
2022/05/12 00:33:42;;;;;;;2.92;1.70;;;;;;;22.28;47.87;99901.91;4990423;28;20442;-65
2022/05/12 00:36:07;;;;;;;3.55;1.98;;;;;;;22.21;48.67;99916.94;4990108;28;20018;-65
2022/05/12 00:38:32;;;;;;;5.35;2.55;;;;;;;22.16;49.27;99913.75;4987648;28;20594;-65
2022/05/12 00:40:58;;;;;;;4.50;2.30;;;;;;;22.11;50.60;99907.84;4991468;28;20036;-65
2022/05/12 00:43:46;;;;;;;4.05;2.55;;;;;;;22.13;48.65;99914.88;4991856;28;20038;-65
2022/05/12 00:46:15;;;;;;;5.45;2.10;;;;;;;22.06;50.19;99912.75;4991822;28;20030;-65
2022/05/12 00:48:42;;;;;;;7.25;2.25;;;;;;;21.94;52.97;99916.50;4991548;28;20019;-65
2022/05/12 00:51:10;;;;;;;4.68;2.10;;;;;;;21.84;51.81;99918.22;4991749;28;20053;-65
2022/05/12 00:53:36;;;;;;;4.28;2.08;;;;;;;21.73;52.21;99920.88;4991693;28;20026;-65
2022/05/12 00:56:04;;;;;;;5.32;2.30;;;;;;;21.69;51.42;99930.22;4991385;28;20045;-65
2022/05/12 00:58:31;;;;;;;6.13;2.90;;;;;;;21.72;52.80;99932.69;4991572;28;20032;-65
2022/05/12 01:00:57;;;;;;;5.18;2.25;;;;;;;21.70;51.31;99921.09;4988335;28;20756;-65
2022/05/12 01:03:25;;;;;;;3.55;2.20;;;;;;;21.68;50.94;99928.50;4991295;28;20038;-65
2022/05/12 01:05:52;;;;;;;7.63;2.72;;;;;;;21.65;51.44;99929.59;4991086;28;20026;-65
2022/05/12 01:08:19;;;;;;;3.30;1.85;;;;;;;21.66;53.23;99933.19;4991570;28;20030;-65
2022/05/12 01:10:54;;;;;;;4.38;2.25;;;;;;;21.72;54.53;99930.84;4991591;28;20030;-64
2022/05/12 01:13:20;;;;;;;5.55;2.22;;;;;;;21.72;54.19;99932.69;4991441;28;20030;-64
2022/05/12 01:15:54;;;;;;;5.07;2.05;;;;;;;21.75;55.02;99930.59;4991321;28;20429;-64
2022/05/12 01:18:20;;;;;;;4.03;1.85;;;;;;;21.78;54.97;99930.38;4991139;28;20034;-65
2022/05/12 01:20:47;;;;;;;3.72;1.80;;;;;;;21.84;54.58;99939.88;4991455;28;20026;-65
2022/05/12 01:23:33;;;;;;;5.15;1.75;;;;;;;21.94;54.23;99947.13;4985549;28;20018;-65
2022/05/12 01:26:02;;;;;;;2.95;1.67;;;;;;;21.96;53.76;99949.72;4972612;28;20042;-65
2022/05/12 01:28:28;;;;;;;2.42;1.75;;;;;;;22.02;54.23;99950.09;4990349;28;20035;-65
2022/05/12 01:30:54;;;;;;;2.35;1.42;;;;;;;22.03;54.25;99961.78;4988932;28;20076;-65
2022/05/12 01:33:20;;;;;;;2.60;1.45;;;;;;;22.01;53.66;99950.19;4990849;28;20377;-65
2022/05/12 01:35:45;;;;;;;5.30;2.00;;;;;;;22.08;54.01;99955.03;4989364;28;20034;-65
2022/05/12 01:38:13;;;;;;;2.67;1.40;;;;;;;22.07;53.25;99964.09;4989624;28;20029;-65
2022/05/12 01:40:39;;;;;;;2.90;1.67;;;;;;;22.09;53.64;99969.44;4989542;28;20030;-65
2022/05/12 01:43:05;;;;;;;3.15;1.55;;;;;;;22.09;53.96;99969.44;4989271;28;20131;-64
2022/05/12 01:45:30;;;;;;;2.60;1.35;;;;;;;22.07;53.82;99974.09;4989279;28;20026;-66
2022/05/12 01:47:59;;;;;;;8.77;1.40;;;;;;;22.05;54.25;99982.38;4988778;28;20494;-65
2022/05/12 01:50:24;;;;;;;4.60;1.92;;;;;;;21.99;54.60;99985.53;4994629;28;20532;-64
2022/05/12 01:52:50;;;;;;;3.65;1.48;;;;;;;21.98;54.35;99986.53;4994628;28;20022;-64
2022/05/12 01:55:19;;;;;;;3.05;1.35;;;;;;;22.01;54.35;99990.84;4994168;28;20037;-64
2022/05/12 01:57:45;;;;;;;1.80;1.20;;;;;;;22.00;54.90;99994.53;4979560;28;20026;-64
2022/05/12 02:00:23;;;;;;;3.20;1.45;;;;;;;21.98;54.50;99991.97;4975415;28;20034;-64
2022/05/12 02:02:49;;;;;;;2.72;1.40;;;;;;;21.99;54.91;99996.38;4976938;28;20039;-64
2022/05/12 02:05:15;;;;;;;3.17;1.25;;;;;;;21.97;55.36;100001.06;4994183;28;20032;-64
2022/05/12 02:07:42;;;;;;;4.00;1.52;;;;;;;21.92;56.02;99997.00;4994302;28;20045;-64
2022/05/12 02:10:12;;;;;;;2.78;1.35;;;;;;;21.88;55.57;99996.38;4994546;28;20486;-64
2022/05/12 02:12:37;;;;;;;2.40;1.30;;;;;;;21.84;55.39;100004.88;4994413;28;20033;-64
2022/05/12 02:15:05;;;;;;;5.95;1.30;;;;;;;21.87;55.81;100010.03;4994399;28;20030;-64
2022/05/12 02:17:32;;;;;;;5.50;1.90;;;;;;;21.80;56.20;100015.09;4994292;28;20039;-64
2022/05/12 02:19:58;;;;;;;5.68;1.50;;;;;;;21.73;57.12;100018.38;4994628;28;20038;-64
2022/05/12 02:22:23;;;;;;;2.50;1.20;;;;;;;21.67;56.92;100025.13;4993794;28;20390;-65
2022/05/12 02:24:49;;;;;;;3.33;1.33;;;;;;;21.66;57.35;100022.53;4994292;28;20026;-65
2022/05/12 02:27:14;;;;;;;2.40;1.20;;;;;;;21.61;57.41;100020.19;4994085;28;20451;-65
2022/05/12 02:29:40;;;;;;;1.98;1.20;;;;;;;21.57;57.34;100039.47;4994226;28;20026;-65
2022/05/12 02:32:06;;;;;;;5.50;1.65;;;;;;;21.55;57.49;100028.75;4993929;28;20018;-65
2022/05/12 02:34:31;;;;;;;3.50;1.30;;;;;;;21.52;57.71;100028.13;4994138;28;20026;-65
2022/05/12 02:37:00;;;;;;;8.73;2.10;;;;;;;21.49;57.89;100039.19;4993693;28;20389;-65
2022/05/12 02:39:32;;;;;;;1.67;1.10;;;;;;;21.40;58.29;100042.63;4994178;28;20502;-65
2022/05/12 02:41:57;;;;;;;1.70;1.05;;;;;;;21.40;58.11;100048.03;4993734;28;20149;-64
2022/05/12 02:44:23;;;;;;;3.22;1.40;;;;;;;21.44;57.94;100046.81;4994114;28;20034;-64
2022/05/12 02:46:48;;;;;;;3.63;1.83;;;;;;;21.41;58.17;100055.16;4993848;28;20045;-64
2022/05/12 02:49:14;;;;;;;2.78;1.00;;;;;;;21.45;58.75;100052.09;4990760;28;20019;-64
2022/05/12 02:51:40;;;;;;;3.35;1.38;;;;;;;21.40;59.01;100064.28;4993544;28;20045;-64
2022/05/12 02:54:05;;;;;;;4.68;1.05;;;;;;;21.34;59.25;100071.00;4993763;28;20037;-65
2022/05/12 02:56:30;;;;;;;2.50;1.13;;;;;;;21.29;59.31;100062.38;4993218;28;20022;-65
2022/05/12 02:58:56;;;;;;;2.30;0.90;;;;;;;21.25;59.15;100081.66;4992641;28;20341;-65
2022/05/12 03:01:21;;;;;;;3.15;1.20;;;;;;;21.19;59.84;100060.47;4992082;28;20066;-64
2022/05/12 03:03:47;;;;;;;3.97;1.10;;;;;;;21.18;60.14;100065.03;4992528;28;20114;-64
2022/05/12 03:06:12;;;;;;;4.55;1.10;;;;;;;21.11;60.39;100076.41;4993141;28;20477;-65
2022/05/12 03:08:42;;;;;;;3.42;1.30;;;;;;;21.03;59.59;100070.72;4992905;28;20388;-65
2022/05/12 03:11:08;;;;;;;3.53;1.10;;;;;;;21.06;60.15;100073.19;4983127;28;20505;-65
2022/05/12 03:13:34;;;;;;;2.92;1.30;;;;;;;21.06;60.84;100086.72;4973881;28;20023;-65
2022/05/12 03:16:00;;;;;;;1.67;1.10;;;;;;;21.00;61.93;100082.63;4984433;28;20030;-65
2022/05/12 03:18:26;;;;;;;2.08;1.17;;;;;;;20.97;62.39;100092.78;5002972;28;20497;-65
2022/05/12 03:20:51;;;;;;;2.38;1.05;;;;;;;20.85;62.93;100089.16;4992989;28;20046;-66
2022/05/12 03:23:18;;;;;;;5.47;1.58;;;;;;;20.73;62.78;100090.03;4993241;28;20033;-65
2022/05/12 03:25:44;;;;;;;2.63;1.23;;;;;;;20.68;63.26;100095.78;4993166;28;20066;-65
2022/05/12 03:28:10;;;;;;;2.45;1.42;;;;;;;20.61;63.57;100091.78;4990620;28;20031;-65
2022/05/12 03:30:36;;;;;;;4.50;1.50;;;;;;;20.53;63.87;100091.47;4973475;28;20069;-66
2022/05/12 03:33:02;;;;;;;3.42;1.33;;;;;;;20.54;65.33;100098.59;4973338;28;20047;-65
2022/05/12 03:35:28;;;;;;;1.60;1.02;;;;;;;20.50;65.40;100105.22;4973569;28;20027;-65
2022/05/12 03:37:54;;;;;;;3.30;1.35;;;;;;;20.45;65.52;100112.78;4973181;28;20490;-65
2022/05/12 03:40:20;;;;;;;11.15;1.65;;;;;;;20.37;65.72;100115.19;4973403;28;20110;-65
2022/05/12 03:42:47;;;;;;;3.45;1.60;;;;;;;20.31;65.26;100121.00;4973311;28;20019;-65
2022/05/12 03:45:13;;;;;;;2.20;1.30;;;;;;;20.25;65.36;100121.44;4973560;28;20042;-65
2022/05/12 03:47:41;;;;;;;3.85;1.40;;;;;;;20.26;66.16;100133.13;4973067;28;20588;-65
2022/05/12 03:50:12;;;;;;;2.13;1.25;;;;;;;20.23;66.22;100128.78;4986007;28;20108;-65
2022/05/12 03:52:38;;;;;;;2.00;1.40;;;;;;;20.19;65.71;100132.69;4992545;28;20027;-65
2022/05/12 03:55:06;;;;;;;3.10;1.35;;;;;;;20.08;66.29;100132.50;4992229;28;20038;-65
2022/05/12 03:57:32;;;;;;;3.15;1.40;;;;;;;20.05;66.84;100146.22;4980663;28;20453;-65
2022/05/12 03:59:57;;;;;;;2.83;1.17;;;;;;;20.05;66.14;100148.94;4992246;28;20026;-65
2022/05/12 04:02:24;;;;;;;2.75;1.42;;;;;;;20.06;65.92;100149.81;4991956;28;20058;-65
2022/05/12 04:04:50;;;;;;;2.28;1.25;;;;;;;20.08;66.32;100154.13;4992604;28;20026;-65
2022/05/12 04:07:18;;;;;;;2.80;1.40;;;;;;;20.13;67.13;100162.78;4989343;28;20478;-65
2022/05/12 04:09:44;;;;;;;3.50;1.20;;;;;;;20.13;67.53;100170.88;4971224;28;20053;-65
2022/05/12 04:12:10;;;;;;;4.63;1.42;;;;;;;20.15;67.75;100170.78;4970887;28;20015;-65
2022/05/12 04:14:40;;;;;;;3.17;1.67;;;;;;;20.19;67.23;100165.09;4971495;28;20444;-65
2022/05/12 04:17:07;;;;;;;1.92;1.27;;;;;;;20.27;67.51;100170.81;4978628;28;20121;-65
2022/05/12 04:19:33;;;;;;;5.95;1.25;;;;;;;20.25;66.07;100174.59;4991271;28;20509;-65
2022/05/12 04:21:58;;;;;;;3.25;1.50;;;;;;;20.18;66.38;100182.25;4991959;28;20042;-65
2022/05/12 04:24:23;;;;;;;4.03;1.33;;;;;;;20.23;66.19;100182.81;4992081;28;20113;-65
2022/05/12 04:26:49;;;;;;;6.18;1.88;;;;;;;20.26;65.97;100182.59;4991938;28;20125;-65
2022/05/12 04:29:15;;;;;;;7.65;1.70;;;;;;;20.31;66.45;100180.44;4991641;28;20025;-65
2022/05/12 04:31:41;;;;;;;9.02;1.80;;;;;;;20.37;66.09;100190.84;4991936;28;20033;-65
2022/05/12 04:36:52;;;;;;;5.00;1.92;;;;;;;20.42;65.64;100191.38;4991925;28;20037;-65
2022/05/12 04:39:17;;;;;;;3.35;1.67;;;;;;;20.43;65.65;100187.69;4991835;28;20022;-65
2022/05/12 04:41:44;;;;;;;4.90;1.10;;;;;;;20.52;65.82;100200.56;4990464;28;20114;-65
2022/05/12 04:44:10;;;;;;;2.28;1.40;;;;;;;20.56;66.16;100206.63;4989914;28;20803;-65
2022/05/12 04:46:37;;;;;;;9.35;1.40;;;;;;;20.65;65.76;100211.38;4989826;28;20110;-65
2022/05/12 04:49:04;;;;;;;5.03;1.67;;;;;;;20.75;65.75;100207.91;4986479;28;20084;-65
2022/05/12 04:51:31;;;;;;;4.13;1.30;;;;;;;20.82;65.66;100206.47;4990319;28;20053;-64
2022/05/12 04:54:00;;;;;;;3.70;1.35;;;;;;;20.78;66.04;100213.09;4989425;28;20026;-64
2022/05/12 04:56:26;;;;;;;2.33;1.20;;;;;;;20.79;65.56;100214.81;4989018;28;20038;-64
2022/05/12 04:58:51;;;;;;;2.35;1.40;;;;;;;20.67;66.05;100207.56;4990259;28;20089;-65
2022/05/12 05:01:17;;;;;;;2.72;1.30;;;;;;;20.83;66.52;100226.28;4990145;28;20396;-65
2022/05/12 05:03:43;;;;;;;4.43;1.90;;;;;;;20.81;66.08;100226.41;4990242;28;20026;-65
2022/05/12 05:06:09;;;;;;;4.70;1.75;;;;;;;20.86;66.57;100226.94;4988984;28;20334;-65
2022/05/12 05:08:35;;;;;;;5.40;1.73;;;;;;;20.93;66.60;100232.78;4988696;28;20070;-65
2022/05/12 05:11:00;;;;;;;1.80;1.20;;;;;;;20.99;66.92;100226.09;4991165;28;20030;-64
2022/05/12 05:13:26;;;;;;;3.47;1.67;;;;;;;20.98;66.92;100232.47;4991507;28;20503;-65
2022/05/12 05:15:53;;;;;;;2.80;1.45;;;;;;;20.98;66.86;100240.59;4991532;28;20064;-65
2022/05/12 05:18:20;;;;;;;2.63;1.05;;;;;;;20.95;67.33;100237.09;4981559;28;20053;-65
2022/05/12 05:20:46;;;;;;;15.13;1.90;;;;;;;20.88;67.72;100235.81;4972102;28;20034;-65
2022/05/12 05:23:15;;;;;;;3.63;1.10;;;;;;;20.94;67.64;100235.38;4971976;28;20073;-65
2022/05/12 05:25:42;;;;;;;2.50;1.10;;;;;;;21.01;67.67;100243.06;4978023;28;20078;-65
2022/05/12 05:28:10;;;;;;;9.52;1.50;;;;;;;21.01;67.55;100241.22;4993049;28;20038;-65
2022/05/12 05:30:36;;;;;;;1.58;1.00;;;;;;;21.08;67.70;100236.25;4993468;28;20030;-65
2022/05/12 05:33:02;;;;;;;4.20;1.33;;;;;;;21.19;67.38;100242.59;4993425;28;20018;-65
2022/05/12 05:35:27;;;;;;;3.67;1.25;;;;;;;21.31;66.91;100251.69;4993216;28;20033;-66
2022/05/12 05:37:53;;;;;;;4.00;1.17;;;;;;;21.49;67.45;100248.50;4993306;28;20064;-65
2022/05/12 05:40:22;;;;;;;3.30;1.20;;;;;;;21.70;65.19;100264.97;4993376;28;20030;-65
2022/05/12 05:42:49;;;;;;;3.97;1.20;;;;;;;21.84;65.25;100276.56;4993418;28;20113;-65
2022/05/12 05:45:17;;;;;;;1.50;1.15;;;;;;;21.98;63.62;100272.81;4994614;28;20105;-65
2022/05/12 05:47:46;;;;;;;3.55;1.17;;;;;;;22.16;63.81;100276.84;4994473;28;20033;-65
2022/05/12 05:50:15;;;;;;;6.35;2.15;;;;;;;22.33;63.26;100281.84;4974757;28;20027;-65
2022/05/12 05:55:25;;;;;;;3.65;1.20;;;;;;;22.32;62.92;100301.81;4975564;28;20073;-65
2022/05/12 05:57:50;;;;;;;5.28;1.17;;;;;;;22.31;62.27;100293.78;4990381;28;20054;-65
2022/05/12 06:00:17;;;;;;;3.75;1.17;;;;;;;22.31;63.12;100302.78;4994336;28;20045;-65
2022/05/12 06:02:43;;;;;;;2.58;1.52;;;;;;;22.43;62.85;100317.25;4993327;28;20714;-65
2022/05/12 06:05:10;;;;;;;4.60;1.20;;;;;;;22.65;63.11;100311.94;4994457;28;20033;-65
2022/05/12 06:07:37;;;;;;;3.33;1.00;;;;;;;22.76;62.87;100312.84;4994573;28;20196;-65
2022/05/12 06:10:06;;;;;;;5.28;1.20;;;;;;;22.75;62.53;100311.09;4994776;28;20072;-65
2022/05/12 06:12:31;;;;;;;2.17;1.10;;;;;;;22.66;61.72;100319.97;4994820;28;20018;-65
2022/05/12 06:14:57;;;;;;;7.25;1.10;;;;;;;22.74;62.13;100327.50;4994533;28;20385;-65
2022/05/12 06:17:23;;;;;;;6.50;1.27;;;;;;;22.93;62.09;100320.50;4990999;28;20018;-65
2022/05/12 06:19:50;;;;;;;2.58;1.30;;;;;;;22.92;60.85;100326.94;4994093;28;20047;-65
2022/05/12 06:22:19;;;;;;;5.72;1.40;;;;;;;23.22;60.62;100337.22;4994350;28;20112;-65
2022/05/12 06:24:45;;;;;;;4.70;1.20;;;;;;;23.34;59.63;100331.69;4994108;28;20026;-65
2022/05/12 06:27:11;;;;;;;6.78;1.52;;;;;;;23.44;59.44;100329.97;4993728;28;20508;-66
2022/05/12 06:29:36;;;;;;;4.40;1.45;;;;;;;23.73;59.11;100332.19;4993097;28;20034;-66
2022/05/12 06:32:06;;;;;;;2.65;1.25;;;;;;;23.73;58.85;100334.91;4993705;28;20019;-65
2022/05/12 06:34:32;;;;;;;3.10;0.85;;;;;;;23.67;58.55;100343.56;4992862;28;20113;-65
2022/05/12 06:36:59;;;;;;;3.90;0.98;;;;;;;23.50;59.11;100346.75;4993494;28;20073;-65
2022/05/12 06:39:25;;;;;;;1.95;0.90;;;;;;;23.26;59.30;100339.59;4993730;28;20034;-65
2022/05/12 06:41:51;;;;;;;2.55;1.00;;;;;;;23.06;59.93;100344.84;4993740;28;20188;-65
2022/05/12 06:44:17;;;;;;;4.22;0.95;;;;;;;22.96;61.72;100351.97;4994195;28;20033;-65
2022/05/12 06:46:43;;;;;;;2.85;1.00;;;;;;;23.02;61.45;100349.66;4989771;28;20034;-66
2022/05/12 06:49:08;;;;;;;4.10;1.33;;;;;;;23.15;61.62;100354.97;4985567;28;20018;-65
2022/05/12 06:51:34;;;;;;;2.40;0.90;;;;;;;23.12;61.57;100358.78;4982666;28;20034;-65
2022/05/12 06:53:59;;;;;;;2.30;1.13;;;;;;;23.09;61.02;100364.47;4975217;28;20031;-65
2022/05/12 06:56:25;;;;;;;7.97;1.60;;;;;;;23.08;62.58;100370.88;4979885;28;20030;-65
2022/05/12 06:58:51;;;;;;;7.22;1.40;;;;;;;23.09;61.68;100361.75;4972153;28;20037;-66
2022/05/12 07:01:17;;;;;;;1.60;0.80;;;;;;;23.10;61.81;100363.47;4972314;28;20046;-66
2022/05/12 07:03:42;;;;;;;5.05;1.00;;;;;;;23.12;61.84;100366.94;4976871;28;20049;-66
2022/05/12 07:06:08;;;;;;;9.40;1.48;;;;;;;23.08;61.36;100365.44;4990473;28;20376;-66
2022/05/12 07:08:40;;;;;;;4.20;1.05;;;;;;;22.98;61.15;100369.84;4989769;28;20030;-66
2022/05/12 07:11:06;;;;;;;5.07;1.33;;;;;;;22.88;62.16;100374.25;4987824;28;20026;-66
2022/05/12 07:13:32;;;;;;;2.25;1.00;;;;;;;22.91;63.34;100374.06;4989990;28;20026;-65
2022/05/12 07:15:57;;;;;;;6.10;1.30;;;;;;;22.86;63.17;100376.25;4973586;28;20027;-66
2022/05/12 07:18:22;;;;;;;4.50;1.17;;;;;;;22.92;63.38;100373.06;4976666;28;20027;-66
2022/05/12 07:29:01;;;;;;;6.15;1.10;;;;;;;23.20;62.84;100361.75;4971506;28;20041;-66
2022/05/12 07:31:27;;;;;;;6.15;1.60;;;;;;;23.17;62.17;100372.00;4971915;28;20031;-66
2022/05/12 07:33:53;;;;;;;1.83;0.75;;;;;;;23.17;61.22;100370.16;4971787;28;20070;-66
2022/05/12 07:36:21;;;;;;;5.88;1.00;;;;;;;23.05;61.52;100365.69;4971360;28;20027;-66
2022/05/12 07:38:47;;;;;;;4.30;1.33;;;;;;;23.00;60.95;100372.44;4971833;28;20022;-66
2022/05/12 07:41:14;;;;;;;1.02;0.75;;;;;;;22.87;62.25;100375.25;4985295;28;20031;-66
2022/05/12 07:46:21;;;;;;;5.78;1.10;;;;;;;22.63;62.50;100379.00;5041190;22;20063;-66
2022/05/12 07:48:47;;;;;;;6.85;1.88;;;;;;;22.67;63.02;100384.06;4971496;28;20584;-66
2022/05/12 07:51:13;;;;;;;3.75;1.40;;;;;;;22.74;63.13;100388.03;4972655;28;20030;-66
2022/05/12 07:53:39;;;;;;;20.58;2.10;;;;;;;22.75;61.60;100387.03;4973243;28;20359;-64
2022/05/12 07:56:05;;;;;;;5.07;1.33;;;;;;;22.72;61.61;100384.56;4972988;28;20442;-64
2022/05/12 07:58:32;;;;;;;20.02;3.00;;;;;;;22.74;61.13;100393.47;4972796;28;20451;-64
2022/05/12 08:00:57;;;;;;;10.20;3.05;;;;;;;22.84;62.50;100396.31;4972856;28;20027;-63
2022/05/12 08:03:24;;;;;;;9.88;4.00;;;;;;;23.12;62.03;100399.50;4972553;28;20034;-64
2022/05/12 08:05:50;;;;;;;4.85;2.28;;;;;;;23.41;60.26;100392.66;4960884;28;20031;-64
2022/05/12 08:08:16;;;;;;;6.47;1.67;;;;;;;23.69;59.51;100401.34;4973016;28;20035;-64
2022/05/12 08:10:42;;;;;;;9.68;2.97;;;;;;;24.05;59.82;100399.22;4972691;28;20089;-64
2022/05/12 08:13:16;;;;;;;12.15;4.55;;;;;;;24.29;58.68;100399.06;4972550;28;20105;-65
2022/05/12 08:15:47;;;;;;;8.02;3.40;;;;;;;24.35;56.82;100401.28;4971852;28;20042;-65
2022/05/12 08:18:13;;;;;;;11.30;5.30;;;;;;;24.41;57.11;100398.06;4971059;28;20058;-65
2022/05/12 08:20:39;;;;;;;48.47;17.70;;;;;;;24.81;56.55;100404.59;4972565;28;20035;-65
2022/05/12 08:23:05;;;;;;;24.45;11.70;;;;;;;24.92;54.45;100406.44;4972300;28;20169;-65
2022/05/12 08:25:31;;;;;;;28.52;9.07;;;;;;;24.92;54.91;100404.59;4972862;28;20509;-65
2022/05/12 08:27:56;;;;;;;27.10;12.43;;;;;;;25.55;53.32;100404.44;4971747;28;20053;-65
2022/05/12 08:30:22;;;;;;;12.20;5.38;;;;;;;26.20;51.11;100400.44;4972245;28;20409;-64
2022/05/12 08:32:47;;;;;;;7.45;3.35;;;;;;;27.05;49.10;100395.09;4971664;28;20046;-64
2022/05/12 08:35:13;;;;;;;4.00;1.67;;;;;;;27.99;46.86;100403.22;4971529;28;20034;-64
2022/05/12 08:37:40;;;;;;;11.10;4.32;;;;;;;28.42;46.19;100392.47;4970699;28;20116;-64
2022/05/12 08:40:08;;;;;;;20.92;9.25;;;;;;;28.45;44.92;100389.44;4970967;28;20035;-64
2022/05/12 08:42:43;;;;;;;7.38;2.58;;;;;;;28.72;46.41;100395.88;4970564;28;20026;-64
2022/05/12 08:45:12;;;;;;;6.18;2.30;;;;;;;28.71;43.30;100399.66;4970852;28;20030;-64
2022/05/12 08:47:44;;;;;;;4.60;1.58;;;;;;;29.05;43.24;100392.44;4970261;28;20498;-64
2022/05/12 08:50:18;;;;;;;2.20;1.33;;;;;;;29.33;43.37;100394.06;4970817;28;20054;-64
2022/05/12 08:52:49;;;;;;;6.22;2.20;;;;;;;29.93;40.45;100406.84;4971315;28;20033;-64
2022/05/12 08:55:20;;;;;;;3.15;1.38;;;;;;;29.86;40.71;100399.41;4970260;28;20026;-63
2022/05/12 08:57:57;;;;;;;2.72;1.30;;;;;;;29.87;40.95;100414.88;4970002;28;20110;-63
2022/05/12 09:00:25;;;;;;;7.97;2.03;;;;;;;30.18;41.42;100399.56;4970370;28;20101;-65
2022/05/12 09:03:07;;;;;;;2.58;1.10;;;;;;;30.48;40.38;100402.63;4972448;28;20026;-65
2022/05/12 09:05:40;;;;;;;3.50;1.13;;;;;;;30.41;40.24;100397.97;4968462;28;20034;-65
2022/05/12 09:08:27;;;;;;;2.35;0.88;;;;;;;30.07;39.44;100406.22;4965995;28;20033;-65
2022/05/12 09:11:18;;;;;;;2.58;1.00;;;;;;;30.50;42.44;100400.56;4970077;28;20069;-65
2022/05/12 09:13:50;;;;;;;10.40;1.65;;;;;;;31.10;41.22;100400.34;4970158;28;20022;-65
2022/05/12 09:16:26;;;;;;;6.55;1.35;;;;;;;31.16;40.63;100396.91;4968986;28;20058;-65
2022/05/12 09:18:53;;;;;;;2.38;1.00;;;;;;;31.30;40.00;100398.97;4961329;28;20506;-66
2022/05/12 09:21:35;;;;;;;3.35;1.67;;;;;;;31.52;40.77;100387.28;4970859;28;20034;-65
2022/05/12 09:24:03;;;;;;;2.10;0.90;;;;;;;31.95;39.26;100386.84;4970616;28;20114;-65
2022/05/12 09:26:47;;;;;;;1.33;1.00;;;;;;;31.99;37.11;100390.97;4970129;28;20039;-65
2022/05/12 09:29:14;;;;;;;6.72;1.10;;;;;;;31.97;37.86;100382.03;4970203;28;20046;-65
2022/05/12 09:31:44;;;;;;;1.33;0.80;;;;;;;31.39;38.57;100381.44;4970430;28;20027;-65
2022/05/12 09:34:23;;;;;;;3.13;1.27;;;;;;;31.40;37.77;100385.94;4970271;28;20675;-65
2022/05/12 09:36:49;;;;;;;2.13;0.93;;;;;;;31.05;40.03;100373.38;4971162;28;20027;-65
2022/05/12 09:39:39;;;;;;;4.10;1.02;;;;;;;30.87;39.26;100372.69;4971954;28;20037;-63
2022/05/12 09:42:09;;;;;;;3.00;0.85;;;;;;;30.92;40.17;100366.66;4971130;28;20015;-62
2022/05/12 09:44:35;;;;;;;3.65;1.02;;;;;;;31.20;38.76;100365.28;4970035;28;20089;-62
2022/05/12 09:47:10;;;;;;;4.55;1.80;;;;;;;30.86;39.60;100363.56;4980263;28;20145;-64
2022/05/12 09:49:44;;;;;;;1.90;0.90;;;;;;;31.67;38.29;100374.53;4987855;28;20076;-65
2022/05/12 09:52:31;;;;;;;4.22;1.25;;;;;;;32.11;36.36;100364.75;4988368;28;20057;-65
2022/05/12 09:55:14;;;;;;;2.33;1.25;;;;;;;31.40;38.20;100366.69;4988375;28;20022;-64
2022/05/12 09:58:01;;;;;;;4.15;0.88;;;;;;;30.37;39.81;100371.88;4989031;28;20039;-63
2022/05/12 10:00:42;;;;;;;1.70;0.90;;;;;;;30.94;38.66;100364.63;4984090;28;20173;-63
2022/05/12 10:09:13;;;;;;;3.28;1.13;;;;;;;31.89;39.14;100360.91;4990853;28;20105;-63
2022/05/12 10:11:57;;;;;;;1.90;1.05;;;;;;;31.79;37.74;100362.13;4993520;28;20389;-63
2022/05/12 10:14:31;;;;;;;2.25;1.55;;;;;;;31.20;37.27;100357.91;4993116;28;20054;-63
2022/05/12 10:17:01;;;;;;;1.52;1.10;;;;;;;30.23;40.08;100359.63;4975473;28;20022;-63
2022/05/12 10:19:29;;;;;;;1.42;0.88;;;;;;;30.14;40.51;100352.38;4973604;28;20029;-63
2022/05/12 10:22:17;;;;;;;1.75;1.02;;;;;;;29.60;40.73;100361.03;4974695;28;20027;-63
2022/05/12 10:24:50;;;;;;;3.95;1.20;;;;;;;30.12;40.80;100351.69;4974428;28;20086;-63
2022/05/12 10:27:37;;;;;;;3.47;1.30;;;;;;;30.16;41.45;100358.56;4954222;29;20667;-63
2022/05/12 10:30:14;;;;;;;3.83;1.20;;;;;;;30.10;41.38;100353.72;4955272;29;20038;-63
2022/05/12 10:33:12;;;;;;;3.85;1.10;;;;;;;29.71;40.70;100349.78;4955411;29;20090;-63
2022/05/12 10:35:59;;;;;;;3.33;1.30;;;;;;;29.66;41.23;100352.16;4955282;29;20586;-63
2022/05/12 10:39:01;;;;;;;3.05;1.23;;;;;;;30.12;40.72;100340.72;4955398;29;20031;-63
2022/05/12 10:42:08;;;;;;;2.28;1.27;;;;;;;31.15;39.13;100341.09;4955065;29;20066;-63
2022/05/12 10:44:39;;;;;;;5.60;2.75;;;;;;;31.84;38.89;100349.53;4954997;29;20073;-63
2022/05/12 10:47:19;;;;;;;2.20;0.98;;;;;;;32.35;38.78;100348.13;4967446;28;20294;-63
2022/05/12 10:50:11;;;;;;;3.35;1.83;;;;;;;32.57;38.18;100344.56;4971375;28;20482;-63
2022/05/12 10:53:08;;;;;;;3.05;1.05;;;;;;;32.38;37.11;100336.78;4954988;29;20089;-63
2022/05/12 10:55:48;;;;;;;2.63;1.20;;;;;;;32.45;37.90;100332.25;4954905;29;20033;-63
2022/05/12 10:58:34;;;;;;;4.07;1.02;;;;;;;32.76;37.77;100335.81;4955298;28;20502;-63
2022/05/12 11:01:25;;;;;;;2.38;1.10;;;;;;;33.12;34.64;100339.69;4974073;28;20038;-63
2022/05/12 11:04:11;;;;;;;1.67;0.80;;;;;;;33.23;35.98;100330.94;4976594;28;20578;-63
2022/05/12 11:06:41;;;;;;;2.47;0.90;;;;;;;33.49;36.17;100332.44;4973874;28;20062;-63
2022/05/12 11:09:14;;;;;;;2.85;0.90;;;;;;;33.65;34.69;100332.25;4970760;28;20022;-63
2022/05/12 11:11:45;;;;;;;2.88;1.10;;;;;;;33.89;35.01;100323.69;4973985;28;20093;-63
2022/05/12 11:14:30;;;;;;;2.00;1.10;;;;;;;33.80;35.81;100320.19;4973937;28;20446;-63
2022/05/12 11:17:08;;;;;;;3.90;1.40;;;;;;;33.03;34.12;100321.47;4967297;28;20023;-63
2022/05/12 11:19:35;;;;;;;3.67;1.00;;;;;;;33.52;37.11;100316.38;4954419;29;20035;-63
2022/05/12 11:22:37;;;;;;;3.08;1.30;;;;;;;33.89;36.82;100323.69;4957020;28;20038;-62
2022/05/12 11:25:28;;;;;;;5.05;1.10;;;;;;;34.31;34.33;100319.19;4954336;29;20449;-62
2022/05/12 11:31:40;;;;;;;6.50;1.10;;;;;;;33.85;34.30;100317.69;4973967;28;20445;-63
2022/05/12 11:34:14;;;;;;;2.42;1.00;;;;;;;33.37;35.57;100304.44;4973516;28;20062;-63
2022/05/12 11:36:44;;;;;;;3.28;1.20;;;;;;;33.04;35.92;100312.19;4973723;28;20444;-63
2022/05/12 11:39:27;;;;;;;2.25;1.10;;;;;;;33.56;35.33;100316.84;4973321;28;20023;-63
2022/05/12 11:42:16;;;;;;;4.78;1.30;;;;;;;33.72;35.20;100316.66;4973187;28;20026;-63
2022/05/12 11:44:56;;;;;;;2.92;1.15;;;;;;;33.94;33.88;100301.94;4973438;28;20118;-63
2022/05/12 11:47:40;;;;;;;1.80;0.80;;;;;;;33.75;33.65;100300.56;4973245;28;20133;-63
2022/05/12 11:50:38;;;;;;;1.95;0.80;;;;;;;33.91;34.40;100297.63;4975662;28;20229;-63
2022/05/12 11:53:27;;;;;;;3.65;1.00;;;;;;;33.96;33.43;100297.91;4973016;28;20111;-63
2022/05/12 11:55:56;;;;;;;3.80;1.30;;;;;;;34.18;34.72;100301.59;4973200;28;20022;-63
2022/05/12 11:58:44;;;;;;;1.92;1.20;;;;;;;34.49;35.03;100293.88;4973118;28;20134;-63
2022/05/12 12:01:39;;;;;;;3.33;1.00;;;;;;;34.45;34.39;100292.56;4973141;28;20050;-65
2022/05/12 12:04:05;;;;;;;3.45;1.17;;;;;;;34.38;35.05;100308.19;4939279;28;20049;-66
2022/05/12 12:06:47;;;;;;;2.92;1.00;;;;;;;34.71;33.60;100305.81;4973075;28;20092;-66